sensor_id;sensor_type;location;lat;lon;timestamp;pressure;altitude;pressure_sealevel;temperature;humidity
9325;BME280;4701;51.566;6.776;2023-04-27T07:03:39;101807.03;;;3.85;85.67
9325;BME280;4701;51.566;6.776;2023-04-27T07:06:41;101802.78;;;3.97;85.82
9325;BME280;4701;51.566;6.776;2023-04-27T07:09:43;101797.63;;;4.09;86.58
9325;BME280;4701;51.566;6.776;2023-04-27T07:12:45;101797.94;;;4.21;86.78
9325;BME280;4701;51.566;6.776;2023-04-27T07:15:46;101792.63;;;4.34;87.10
9325;BME280;4701;51.566;6.776;2023-04-27T07:18:50;101799.09;;;4.46;86.39
9325;BME280;4701;51.566;6.776;2023-04-27T07:21:51;101802.91;;;4.58;86.10
9325;BME280;4701;51.566;6.776;2023-04-27T07:24:53;101792.53;;;4.68;85.75
9325;BME280;4701;51.566;6.776;2023-04-27T07:27:55;101803.59;;;4.80;84.63
9325;BME280;4701;51.566;6.776;2023-04-27T07:30:59;101793.25;;;4.90;84.15
9325;BME280;4701;51.566;6.776;2023-04-27T07:34:02;101798.88;;;5.02;83.52
9325;BME280;4701;51.566;6.776;2023-04-27T07:37:04;101800.13;;;5.12;82.55
9325;BME280;4701;51.566;6.776;2023-04-27T07:40:07;101806.19;;;5.21;81.70
9325;BME280;4701;51.566;6.776;2023-04-27T07:43:15;101805.59;;;5.32;81.39
9325;BME280;4701;51.566;6.776;2023-04-27T07:46:17;101802.47;;;5.42;80.46
9325;BME280;4701;51.566;6.776;2023-04-27T07:49:21;101803.94;;;5.51;79.44
9325;BME280;4701;51.566;6.776;2023-04-27T07:52:24;101807.06;;;5.61;79.25
9325;BME280;4701;51.566;6.776;2023-04-27T07:55:26;101803.31;;;5.68;78.41
9325;BME280;4701;51.566;6.776;2023-04-27T07:58:28;101809.34;;;5.77;77.54
9325;BME280;4701;51.566;6.776;2023-04-27T08:01:29;101799.34;;;5.84;77.52
9325;BME280;4701;51.566;6.776;2023-04-27T08:04:33;101800.84;;;5.93;76.12
9325;BME280;4701;51.566;6.776;2023-04-27T08:07:34;101796.25;;;6.00;75.93
9325;BME280;4701;51.566;6.776;2023-04-27T08:10:36;101792.69;;;6.06;75.10
9325;BME280;4701;51.566;6.776;2023-04-27T08:13:39;101793.28;;;6.15;74.33
9325;BME280;4701;51.566;6.776;2023-04-27T08:16:41;101796.81;;;6.22;74.03
9325;BME280;4701;51.566;6.776;2023-04-27T08:19:44;101784.09;;;6.29;73.96
9325;BME280;4701;51.566;6.776;2023-04-27T08:22:46;101790.31;;;6.36;73.11
9325;BME280;4701;51.566;6.776;2023-04-27T08:25:51;101783.00;;;6.43;72.71
9325;BME280;4701;51.566;6.776;2023-04-27T08:28:53;101782.97;;;6.50;72.44
9325;BME280;4701;51.566;6.776;2023-04-27T08:31:59;101790.03;;;6.58;71.94
9325;BME280;4701;51.566;6.776;2023-04-27T08:35:02;101780.81;;;6.65;71.43
9325;BME280;4701;51.566;6.776;2023-04-27T08:38:04;101785.38;;;6.71;70.97
9325;BME280;4701;51.566;6.776;2023-04-27T08:41:06;101781.59;;;6.79;70.62
9325;BME280;4701;51.566;6.776;2023-04-27T08:44:08;101779.91;;;6.84;69.73
9325;BME280;4701;51.566;6.776;2023-04-27T08:47:10;101773.38;;;6.92;69.48
9325;BME280;4701;51.566;6.776;2023-04-27T08:50:13;101775.84;;;7.00;69.00
9325;BME280;4701;51.566;6.776;2023-04-27T08:53:16;101768.50;;;7.07;69.10
9325;BME280;4701;51.566;6.776;2023-04-27T08:56:19;101772.81;;;7.15;68.44
9325;BME280;4701;51.566;6.776;2023-04-27T08:59:22;101779.88;;;7.22;68.07
9325;BME280;4701;51.566;6.776;2023-04-27T09:02:24;101776.06;;;7.30;68.14
9325;BME280;4701;51.566;6.776;2023-04-27T09:05:30;101780.38;;;7.38;67.60
9325;BME280;4701;51.566;6.776;2023-04-27T09:08:42;101766.56;;;7.46;67.47
9325;BME280;4701;51.566;6.776;2023-04-27T09:11:44;101767.09;;;7.54;66.92
9325;BME280;4701;51.566;6.776;2023-04-27T09:14:55;101768.50;;;7.64;66.59
9325;BME280;4701;51.566;6.776;2023-04-27T09:17:57;101760.28;;;7.70;66.34
9325;BME280;4701;51.566;6.776;2023-04-27T09:21:00;101756.44;;;7.78;65.98
9325;BME280;4701;51.566;6.776;2023-04-27T09:24:09;101755.13;;;7.87;65.67
9325;BME280;4701;51.566;6.776;2023-04-27T09:27:18;101754.00;;;7.94;65.64
9325;BME280;4701;51.566;6.776;2023-04-27T09:30:20;101750.13;;;8.02;65.81
9325;BME280;4701;51.566;6.776;2023-04-27T09:33:23;101754.44;;;8.10;65.49
9325;BME280;4701;51.566;6.776;2023-04-27T09:36:26;101758.75;;;8.17;64.92
9325;BME280;4701;51.566;6.776;2023-04-27T09:39:28;101750.28;;;8.25;64.85
9325;BME280;4701;51.566;6.776;2023-04-27T09:42:30;101748.38;;;8.32;63.43
9325;BME280;4701;51.566;6.776;2023-04-27T09:45:33;101745.34;;;8.41;63.38
9325;BME280;4701;51.566;6.776;2023-04-27T09:48:37;101741.72;;;8.47;63.16
9325;BME280;4701;51.566;6.776;2023-04-27T09:51:40;101738.69;;;8.55;63.10
9325;BME280;4701;51.566;6.776;2023-04-27T09:54:42;101735.88;;;8.61;62.82
9325;BME280;4701;51.566;6.776;2023-04-27T09:57:52;101739.94;;;8.70;62.25
9325;BME280;4701;51.566;6.776;2023-04-27T10:01:02;101736.28;;;8.77;60.77
9325;BME280;4701;51.566;6.776;2023-04-27T10:04:15;101731.63;;;8.84;60.54
9325;BME280;4701;51.566;6.776;2023-04-27T10:07:25;101721.47;;;8.91;60.63
9325;BME280;4701;51.566;6.776;2023-04-27T10:10:27;101725.75;;;8.98;61.36
9325;BME280;4701;51.566;6.776;2023-04-27T10:13:30;101717.25;;;9.06;60.80
9325;BME280;4701;51.566;6.776;2023-04-27T10:16:38;101716.31;;;9.13;59.42
9325;BME280;4701;51.566;6.776;2023-04-27T10:19:55;101710.75;;;9.19;58.04
9325;BME280;4701;51.566;6.776;2023-04-27T10:22:59;101709.00;;;9.25;57.94
9325;BME280;4701;51.566;6.776;2023-04-27T10:26:06;101696.94;;;9.32;58.30
9325;BME280;4701;51.566;6.776;2023-04-27T10:29:08;101706.06;;;9.38;58.12
9325;BME280;4701;51.566;6.776;2023-04-27T10:32:17;101700.50;;;9.44;57.46
9325;BME280;4701;51.566;6.776;2023-04-27T10:35:21;101707.75;;;9.51;58.12
9325;BME280;4701;51.566;6.776;2023-04-27T10:38:28;101688.56;;;9.57;58.63
9325;BME280;4701;51.566;6.776;2023-04-27T10:41:34;101684.88;;;9.63;58.00
9325;BME280;4701;51.566;6.776;2023-04-27T10:44:37;101695.63;;;9.70;57.99
9325;BME280;4701;51.566;6.776;2023-04-27T10:47:40;101689.50;;;9.74;58.05
9325;BME280;4701;51.566;6.776;2023-04-27T10:50:43;101705.47;;;9.82;58.06
9325;BME280;4701;51.566;6.776;2023-04-27T10:53:51;101703.69;;;9.88;57.86
9325;BME280;4701;51.566;6.776;2023-04-27T10:56:53;101691.03;;;9.94;57.87
9325;BME280;4701;51.566;6.776;2023-04-27T10:59:55;101690.28;;;9.98;57.19
9325;BME280;4701;51.566;6.776;2023-04-27T11:03:09;101694.22;;;10.02;57.11
9325;BME280;4701;51.566;6.776;2023-04-27T11:06:11;101679.03;;;10.06;56.67
9325;BME280;4701;51.566;6.776;2023-04-27T11:09:24;101680.78;;;10.12;56.03
9325;BME280;4701;51.566;6.776;2023-04-27T11:12:26;101673.78;;;10.16;56.59
9325;BME280;4701;51.566;6.776;2023-04-27T11:15:28;101681.03;;;10.22;56.16
9325;BME280;4701;51.566;6.776;2023-04-27T11:18:31;101689.31;;;10.28;56.04
9325;BME280;4701;51.566;6.776;2023-04-27T11:21:33;101680.41;;;10.32;55.94
9325;BME280;4701;51.566;6.776;2023-04-27T11:24:36;101680.53;;;10.37;55.91
9325;BME280;4701;51.566;6.776;2023-04-27T11:27:47;101686.88;;;10.43;55.74
9325;BME280;4701;51.566;6.776;2023-04-27T11:30:55;101675.25;;;10.47;56.20
9325;BME280;4701;51.566;6.776;2023-04-27T11:33:57;101672.63;;;10.52;55.62
9325;BME280;4701;51.566;6.776;2023-04-27T11:36:59;101667.25;;;10.57;55.75
9325;BME280;4701;51.566;6.776;2023-04-27T11:40:05;101670.09;;;10.63;55.30
9325;BME280;4701;51.566;6.776;2023-04-27T11:43:11;101668.06;;;10.70;55.81
9325;BME280;4701;51.566;6.776;2023-04-27T11:46:13;101659.13;;;10.74;55.51
9325;BME280;4701;51.566;6.776;2023-04-27T11:49:15;101654.59;;;10.80;55.76
9325;BME280;4701;51.566;6.776;2023-04-27T11:52:17;101651.47;;;10.88;54.49
9325;BME280;4701;51.566;6.776;2023-04-27T11:55:21;101652.63;;;10.92;53.84
9325;BME280;4701;51.566;6.776;2023-04-27T11:58:24;101645.09;;;10.99;55.12
9325;BME280;4701;51.566;6.776;2023-04-27T12:01:27;101641.13;;;11.07;55.57
9325;BME280;4701;51.566;6.776;2023-04-27T12:04:29;101635.53;;;11.13;54.01
9325;BME280;4701;51.566;6.776;2023-04-27T12:07:31;101630.47;;;11.22;53.50
9325;BME280;4701;51.566;6.776;2023-04-27T12:10:35;101633.09;;;11.33;54.39
9325;BME280;4701;51.566;6.776;2023-04-27T12:13:37;101626.72;;;11.45;54.05
9325;BME280;4701;51.566;6.776;2023-04-27T12:16:38;101633.22;;;11.60;52.77
9325;BME280;4701;51.566;6.776;2023-04-27T12:19:40;101635.59;;;11.73;51.76
9325;BME280;4701;51.566;6.776;2023-04-27T12:22:42;101619.69;;;11.87;51.29
9325;BME280;4701;51.566;6.776;2023-04-27T12:25:46;101624.84;;;12.05;52.13
9325;BME280;4701;51.566;6.776;2023-04-27T12:28:47;101616.31;;;12.24;52.58
9325;BME280;4701;51.566;6.776;2023-04-27T12:31:50;101616.22;;;12.40;52.01
9325;BME280;4701;51.566;6.776;2023-04-27T12:34:52;101609.56;;;12.58;51.37
9325;BME280;4701;51.566;6.776;2023-04-27T12:37:54;101614.63;;;12.76;51.29
9325;BME280;4701;51.566;6.776;2023-04-27T12:40:57;101611.00;;;12.98;51.52
9325;BME280;4701;51.566;6.776;2023-04-27T12:44:00;101610.34;;;13.17;50.84
9325;BME280;4701;51.566;6.776;2023-04-27T12:47:02;101612.69;;;13.41;51.49
9325;BME280;4701;51.566;6.776;2023-04-27T12:50:06;101612.81;;;13.61;50.71
9325;BME280;4701;51.566;6.776;2023-04-27T12:53:09;101598.13;;;13.82;48.74
9325;BME280;4701;51.566;6.776;2023-04-27T12:56:12;101599.56;;;13.95;47.54
9325;BME280;4701;51.566;6.776;2023-04-27T12:59:14;101591.91;;;14.12;48.09
9325;BME280;4701;51.566;6.776;2023-04-27T13:02:16;101594.16;;;14.30;48.32
9325;BME280;4701;51.566;6.776;2023-04-27T13:05:18;101602.75;;;14.49;49.72
9325;BME280;4701;51.566;6.776;2023-04-27T13:08:21;101596.44;;;14.64;49.25
9325;BME280;4701;51.566;6.776;2023-04-27T13:11:25;101602.78;;;14.74;47.01
9325;BME280;4701;51.566;6.776;2023-04-27T13:14:27;101591.81;;;14.85;47.53
9325;BME280;4701;51.566;6.776;2023-04-27T13:17:29;101594.56;;;14.95;47.31
9325;BME280;4701;51.566;6.776;2023-04-27T13:20:31;101586.03;;;14.96;44.36
9325;BME280;4701;51.566;6.776;2023-04-27T13:23:33;101586.84;;;15.02;44.30
9325;BME280;4701;51.566;6.776;2023-04-27T13:26:37;101582.44;;;15.06;45.22
9325;BME280;4701;51.566;6.776;2023-04-27T13:29:39;101580.81;;;15.10;45.15
9325;BME280;4701;51.566;6.776;2023-04-27T13:32:41;101588.50;;;15.13;44.81
9325;BME280;4701;51.566;6.776;2023-04-27T13:35:43;101580.53;;;15.17;44.71
9325;BME280;4701;51.566;6.776;2023-04-27T13:38:45;101565.16;;;15.21;45.08
9325;BME280;4701;51.566;6.776;2023-04-27T13:41:48;101576.66;;;15.28;45.67
9325;BME280;4701;51.566;6.776;2023-04-27T13:44:50;101578.28;;;15.34;45.74
9325;BME280;4701;51.566;6.776;2023-04-27T13:47:52;101568.69;;;15.36;44.89
9325;BME280;4701;51.566;6.776;2023-04-27T13:50:54;101561.50;;;15.40;45.12
9325;BME280;4701;51.566;6.776;2023-04-27T13:53:55;101563.72;;;15.43;45.19
9325;BME280;4701;51.566;6.776;2023-04-27T13:56:59;101564.00;;;15.47;44.96
9325;BME280;4701;51.566;6.776;2023-04-27T14:00:03;101562.03;;;15.52;45.46
9325;BME280;4701;51.566;6.776;2023-04-27T14:03:07;101558.78;;;15.56;44.87
9325;BME280;4701;51.566;6.776;2023-04-27T14:06:09;101559.84;;;15.60;44.47
9325;BME280;4701;51.566;6.776;2023-04-27T14:09:11;101559.53;;;15.66;44.79
9325;BME280;4701;51.566;6.776;2023-04-27T14:12:14;101547.16;;;15.69;41.85
9325;BME280;4701;51.566;6.776;2023-04-27T14:15:16;101543.31;;;15.70;40.70
9325;BME280;4701;51.566;6.776;2023-04-27T14:18:18;101546.34;;;15.73;41.74
9325;BME280;4701;51.566;6.776;2023-04-27T14:21:20;101539.16;;;15.77;42.10
9325;BME280;4701;51.566;6.776;2023-04-27T14:24:22;101533.63;;;15.82;42.71
9325;BME280;4701;51.566;6.776;2023-04-27T14:27:25;101524.00;;;15.85;42.53
9325;BME280;4701;51.566;6.776;2023-04-27T14:30:27;101519.31;;;15.85;41.51
9325;BME280;4701;51.566;6.776;2023-04-27T14:33:29;101517.94;;;15.88;41.86
9325;BME280;4701;51.566;6.776;2023-04-27T14:36:31;101511.34;;;15.89;42.01
9325;BME280;4701;51.566;6.776;2023-04-27T14:39:33;101518.19;;;15.92;42.88
9325;BME280;4701;51.566;6.776;2023-04-27T14:42:36;101509.94;;;15.92;42.67
9325;BME280;4701;51.566;6.776;2023-04-27T14:45:38;101504.16;;;15.93;41.74
9325;BME280;4701;51.566;6.776;2023-04-27T14:48:40;101499.75;;;15.92;40.81
9325;BME280;4701;51.566;6.776;2023-04-27T14:51:42;101491.50;;;15.92;41.70
9325;BME280;4701;51.566;6.776;2023-04-27T14:54:43;101488.53;;;15.88;40.72
9325;BME280;4701;51.566;6.776;2023-04-27T14:57:47;101484.69;;;15.84;39.60
9325;BME280;4701;51.566;6.776;2023-04-27T15:00:49;101489.13;;;15.80;40.46
9325;BME280;4701;51.566;6.776;2023-04-27T15:03:50;101476.75;;;15.78;40.44
9325;BME280;4701;51.566;6.776;2023-04-27T15:06:53;101478.69;;;15.77;42.58
9325;BME280;4701;51.566;6.776;2023-04-27T15:09:55;101480.06;;;15.75;40.43
9325;BME280;4701;51.566;6.776;2023-04-27T15:13:00;101479.00;;;15.71;39.69
9325;BME280;4701;51.566;6.776;2023-04-27T15:16:02;101476.53;;;15.69;39.39
9325;BME280;4701;51.566;6.776;2023-04-27T15:19:06;101477.91;;;15.67;40.06
9325;BME280;4701;51.566;6.776;2023-04-27T15:22:08;101472.19;;;15.63;38.92
9325;BME280;4701;51.566;6.776;2023-04-27T15:25:10;101462.28;;;15.57;38.80
9325;BME280;4701;51.566;6.776;2023-04-27T15:28:14;101462.06;;;15.54;38.65
9325;BME280;4701;51.566;6.776;2023-04-27T15:31:17;101468.06;;;15.50;39.32
9325;BME280;4701;51.566;6.776;2023-04-27T15:34:20;101469.75;;;15.46;40.19
9325;BME280;4701;51.566;6.776;2023-04-27T15:37:22;101473.06;;;15.43;40.30
9325;BME280;4701;51.566;6.776;2023-04-27T15:40:24;101473.91;;;15.39;38.60
9325;BME280;4701;51.566;6.776;2023-04-27T15:43:27;101463.19;;;15.37;40.19
9325;BME280;4701;51.566;6.776;2023-04-27T15:46:29;101465.69;;;15.34;39.66
9325;BME280;4701;51.566;6.776;2023-04-27T15:49:31;101461.88;;;15.30;39.96
9325;BME280;4701;51.566;6.776;2023-04-27T15:52:33;101456.91;;;15.27;41.46
9325;BME280;4701;51.566;6.776;2023-04-27T15:55:35;101451.97;;;15.24;40.52
9325;BME280;4701;51.566;6.776;2023-04-27T15:58:38;101451.47;;;15.22;41.84
9325;BME280;4701;51.566;6.776;2023-04-27T16:01:40;101443.78;;;15.19;41.46
9325;BME280;4701;51.566;6.776;2023-04-27T16:04:42;101445.97;;;15.17;40.28
9325;BME280;4701;51.566;6.776;2023-04-27T16:07:44;101441.31;;;15.12;40.13
9325;BME280;4701;51.566;6.776;2023-04-27T16:10:46;101433.63;;;15.09;40.56
9325;BME280;4701;51.566;6.776;2023-04-27T16:13:52;101433.66;;;15.04;39.89
9325;BME280;4701;51.566;6.776;2023-04-27T16:16:54;101429.56;;;15.01;40.08
9325;BME280;4701;51.566;6.776;2023-04-27T16:19:59;101433.66;;;14.99;40.01
9325;BME280;4701;51.566;6.776;2023-04-27T16:23:01;101422.72;;;14.94;40.34
9325;BME280;4701;51.566;6.776;2023-04-27T16:26:02;101415.03;;;14.91;39.78
9325;BME280;4701;51.566;6.776;2023-04-27T16:29:06;101417.22;;;14.89;41.30
9325;BME280;4701;51.566;6.776;2023-04-27T16:32:08;101415.59;;;14.88;41.17
9325;BME280;4701;51.566;6.776;2023-04-27T16:35:10;101420.53;;;14.86;41.22
9325;BME280;4701;51.566;6.776;2023-04-27T16:38:12;101407.09;;;14.84;42.00
9325;BME280;4701;51.566;6.776;2023-04-27T16:41:14;101404.91;;;14.81;40.77
9325;BME280;4701;51.566;6.776;2023-04-27T16:44:18;101403.25;;;14.80;41.93
9325;BME280;4701;51.566;6.776;2023-04-27T16:47:23;101412.06;;;14.77;41.83
9325;BME280;4701;51.566;6.776;2023-04-27T16:50:25;101406.56;;;14.72;41.08
9325;BME280;4701;51.566;6.776;2023-04-27T16:53:27;101393.97;;;14.66;40.70
9325;BME280;4701;51.566;6.776;2023-04-27T16:56:30;101405.22;;;14.64;41.00
9325;BME280;4701;51.566;6.776;2023-04-27T16:59:33;101400.56;;;14.60;41.44
9325;BME280;4701;51.566;6.776;2023-04-27T17:02:35;101392.88;;;14.57;41.45
9325;BME280;4701;51.566;6.776;2023-04-27T17:05:38;101393.16;;;14.55;42.61
9325;BME280;4701;51.566;6.776;2023-04-27T17:08:39;101385.50;;;14.52;42.30
9325;BME280;4701;51.566;6.776;2023-04-27T17:11:42;101386.03;;;14.49;42.41
9325;BME280;4701;51.566;6.776;2023-04-27T17:14:46;101386.31;;;14.48;42.41
9325;BME280;4701;51.566;6.776;2023-04-27T17:17:48;101370.72;;;14.43;42.22
9325;BME280;4701;51.566;6.776;2023-04-27T17:20:50;101364.94;;;14.39;41.80
9325;BME280;4701;51.566;6.776;2023-04-27T17:23:52;101365.47;;;14.36;42.13
9325;BME280;4701;51.566;6.776;2023-04-27T17:26:54;101362.72;;;14.31;42.39
9325;BME280;4701;51.566;6.776;2023-04-27T17:29:58;101363.84;;;14.25;42.58
9325;BME280;4701;51.566;6.776;2023-04-27T17:33:00;101359.47;;;14.19;42.78
9325;BME280;4701;51.566;6.776;2023-04-27T17:36:02;101362.47;;;14.13;43.18
9325;BME280;4701;51.566;6.776;2023-04-27T17:39:05;101351.53;;;14.08;43.30
9325;BME280;4701;51.566;6.776;2023-04-27T17:42:07;101353.44;;;14.02;43.90
9325;BME280;4701;51.566;6.776;2023-04-27T17:45:12;101353.69;;;13.95;44.00
9325;BME280;4701;51.566;6.776;2023-04-27T17:48:14;101347.69;;;13.88;43.40
9325;BME280;4701;51.566;6.776;2023-04-27T17:51:18;101342.22;;;13.83;43.65
9325;BME280;4701;51.566;6.776;2023-04-27T17:54:20;101344.13;;;13.78;44.57
9325;BME280;4701;51.566;6.776;2023-04-27T17:57:22;101340.81;;;13.71;43.70
9325;BME280;4701;51.566;6.776;2023-04-27T18:00:25;101342.19;;;13.63;44.19
9325;BME280;4701;51.566;6.776;2023-04-27T18:03:27;101342.19;;;13.58;44.04
9325;BME280;4701;51.566;6.776;2023-04-27T18:06:29;101338.06;;;13.50;44.62
9325;BME280;4701;51.566;6.776;2023-04-27T18:09:31;101339.13;;;13.44;44.25
9325;BME280;4701;51.566;6.776;2023-04-27T18:12:33;101336.41;;;13.39;44.60
9325;BME280;4701;51.566;6.776;2023-04-27T18:15:37;101332.28;;;13.32;44.88
9325;BME280;4701;51.566;6.776;2023-04-27T18:18:39;101337.75;;;13.27;45.15
9325;BME280;4701;51.566;6.776;2023-04-27T18:21:41;101345.94;;;13.21;45.10
9325;BME280;4701;51.566;6.776;2023-04-27T18:24:43;101340.47;;;13.16;45.27
9325;BME280;4701;51.566;6.776;2023-04-27T18:27:45;101340.69;;;13.10;45.90
9325;BME280;4701;51.566;6.776;2023-04-27T18:30:50;101341.75;;;13.04;46.28
9325;BME280;4701;51.566;6.776;2023-04-27T18:33:53;101348.84;;;13.00;46.62
9325;BME280;4701;51.566;6.776;2023-04-27T18:36:55;101351.56;;;12.95;46.36
9325;BME280;4701;51.566;6.776;2023-04-27T18:39:57;101350.72;;;12.89;45.97
9325;BME280;4701;51.566;6.776;2023-04-27T18:42:59;101345.25;;;12.84;46.44
9325;BME280;4701;51.566;6.776;2023-04-27T18:46:02;101346.03;;;12.79;45.88
9325;BME280;4701;51.566;6.776;2023-04-27T18:49:04;101345.75;;;12.76;46.58
9325;BME280;4701;51.566;6.776;2023-04-27T18:52:06;101345.72;;;12.71;46.87
9325;BME280;4701;51.566;6.776;2023-04-27T18:55:10;101348.44;;;12.66;46.81
9325;BME280;4701;51.566;6.776;2023-04-27T18:58:13;101339.09;;;12.62;47.00
9325;BME280;4701;51.566;6.776;2023-04-27T19:01:21;101331.72;;;12.57;46.66
9325;BME280;4701;51.566;6.776;2023-04-27T19:04:23;101334.13;;;12.54;46.73
9325;BME280;4701;51.566;6.776;2023-04-27T19:07:25;101330.31;;;12.49;46.91
9325;BME280;4701;51.566;6.776;2023-04-27T19:10:27;101335.47;;;12.46;47.24
9325;BME280;4701;51.566;6.776;2023-04-27T19:13:29;101337.88;;;12.42;47.63
9325;BME280;4701;51.566;6.776;2023-04-27T19:16:32;101336.78;;;12.38;47.62
9325;BME280;4701;51.566;6.776;2023-04-27T19:19:35;101338.38;;;12.34;47.71
9325;BME280;4701;51.566;6.776;2023-04-27T19:22:37;101338.94;;;12.31;47.74
9325;BME280;4701;51.566;6.776;2023-04-27T19:25:39;101339.44;;;12.28;47.88
9325;BME280;4701;51.566;6.776;2023-04-27T19:28:41;101339.16;;;12.25;48.13
9325;BME280;4701;51.566;6.776;2023-04-27T19:31:44;101343.25;;;12.22;47.86
9325;BME280;4701;51.566;6.776;2023-04-27T19:34:46;101342.69;;;12.20;47.94
9325;BME280;4701;51.566;6.776;2023-04-27T19:37:48;101342.38;;;12.17;48.33
9325;BME280;4701;51.566;6.776;2023-04-27T19:40:50;101346.47;;;12.14;48.27
9325;BME280;4701;51.566;6.776;2023-04-27T19:43:52;101330.59;;;12.11;48.56
9325;BME280;4701;51.566;6.776;2023-04-27T19:46:56;101333.84;;;12.08;48.45
9325;BME280;4701;51.566;6.776;2023-04-27T19:49:58;101345.06;;;12.06;49.25
9325;BME280;4701;51.566;6.776;2023-04-27T19:53:01;101333.81;;;12.03;48.94
9325;BME280;4701;51.566;6.776;2023-04-27T19:56:03;101327.78;;;12.01;48.85
9325;BME280;4701;51.566;6.776;2023-04-27T19:59:05;101333.78;;;11.98;48.64
9325;BME280;4701;51.566;6.776;2023-04-27T20:02:08;101337.59;;;11.97;49.18
9325;BME280;4701;51.566;6.776;2023-04-27T20:05:11;101338.94;;;11.94;49.64
9325;BME280;4701;51.566;6.776;2023-04-27T20:08:12;101334.81;;;11.92;49.18
9325;BME280;4701;51.566;6.776;2023-04-27T20:11:17;101332.06;;;11.92;49.35
9325;BME280;4701;51.566;6.776;2023-04-27T20:14:19;101324.41;;;11.89;49.75
9325;BME280;4701;51.566;6.776;2023-04-27T20:17:22;101319.22;;;11.87;49.48
9325;BME280;4701;51.566;6.776;2023-04-27T20:20:25;101318.63;;;11.85;49.66
9325;BME280;4701;51.566;6.776;2023-04-27T20:23:27;101318.91;;;11.84;49.80
9325;BME280;4701;51.566;6.776;2023-04-27T20:26:30;101316.44;;;11.82;49.94
9325;BME280;4701;51.566;6.776;2023-04-27T20:29:34;101306.88;;;11.80;49.93
9325;BME280;4701;51.566;6.776;2023-04-27T20:32:41;101307.13;;;11.78;50.17
9325;BME280;4701;51.566;6.776;2023-04-27T20:35:43;101296.44;;;11.77;50.26
9325;BME280;4701;51.566;6.776;2023-04-27T20:38:49;101304.06;;;11.74;50.27
9325;BME280;4701;51.566;6.776;2023-04-27T20:41:53;101298.88;;;11.73;50.26
9325;BME280;4701;51.566;6.776;2023-04-27T20:44:56;101304.84;;;11.70;50.32
9325;BME280;4701;51.566;6.776;2023-04-27T20:47:59;101293.91;;;11.70;50.37
9325;BME280;4701;51.566;6.776;2023-04-27T20:51:02;101289.78;;;11.67;50.45
9325;BME280;4701;51.566;6.776;2023-04-27T20:54:05;101288.13;;;11.66;50.75
9325;BME280;4701;51.566;6.776;2023-04-27T20:57:07;101284.88;;;11.64;50.58
9325;BME280;4701;51.566;6.776;2023-04-27T21:00:13;101280.50;;;11.63;51.08
